Terminal Aerodrome Forecast
Issued by NWS

Home | Current Version | Previous Version | Text Only | Print | Product List | Glossary On
Versions: 1 2 3 4 5 6 7 8 9 10 11 12 13 14 15 16 17 18 19 20 21
926
FTUS43 KAPX 292320
TAFPLN
TAF
KPLN 292320Z 3000/3024 24011KT P6SM BKN080
     FM300400 24009KT P6SM BKN050
     FM300900 24009KT P6SM OVC030
     FM301500 25012G21KT P6SM BKN035=

USA.gov is the U.S. government's official web portal to all federal, state and local government web resources and services.